createdAt,value
2023-03-03T00:00:27.764Z,4.70
2023-03-03T00:02:58.193Z,4.74
2023-03-03T00:05:25.594Z,4.69
2023-03-03T00:07:52.879Z,4.56
2023-03-03T00:10:20.216Z,4.68
2023-03-03T00:12:49.882Z,4.53
2023-03-03T00:15:19.582Z,4.50
2023-03-03T00:17:47.043Z,4.84
2023-03-03T00:20:35.673Z,4.57
2023-03-03T00:23:27.441Z,4.57
2023-03-03T00:25:54.980Z,4.43
2023-03-03T00:28:25.994Z,4.66
2023-03-03T00:30:55.234Z,4.73
2023-03-03T00:33:34.738Z,5.02
2023-03-03T00:36:29.031Z,5.01
2023-03-03T00:39:00.650Z,4.71
2023-03-03T00:41:28.496Z,4.30
2023-03-03T00:43:55.929Z,4.29
2023-03-03T00:46:24.298Z,4.65
2023-03-03T00:48:51.862Z,4.60
2023-03-03T00:51:34.549Z,4.59
2023-03-03T00:54:02.046Z,4.61
2023-03-03T00:56:29.389Z,4.43
2023-03-03T00:58:57.558Z,4.30
2023-03-03T01:01:27.106Z,4.54
2023-03-03T01:03:55.090Z,4.35
2023-03-03T01:06:22.631Z,4.66
2023-03-03T01:08:50.580Z,4.62
2023-03-03T01:11:22.708Z,4.36
2023-03-03T01:13:50.912Z,4.70
2023-03-03T01:16:19.227Z,4.35
2023-03-03T01:18:46.611Z,4.18
2023-03-03T01:21:13.976Z,4.33
2023-03-03T01:23:41.466Z,4.15
2023-03-03T01:26:09.080Z,4.06
2023-03-03T01:28:36.573Z,3.75
2023-03-03T01:31:05.353Z,3.72
2023-03-03T01:33:34.561Z,3.71
2023-03-03T01:36:02.666Z,3.72
2023-03-03T01:38:30.563Z,3.77
2023-03-03T01:40:59.759Z,3.59
2023-03-03T01:43:31.788Z,3.83
2023-03-03T01:45:58.990Z,4.07
2023-03-03T01:48:37.416Z,3.83
2023-03-03T01:51:08.017Z,3.78
2023-03-03T01:53:51.645Z,3.85
2023-03-03T01:56:19.243Z,3.72
2023-03-03T01:58:50.216Z,3.76
2023-03-03T02:01:22.700Z,3.67
2023-03-03T02:03:50.908Z,3.61
2023-03-03T02:06:20.911Z,3.88
2023-03-03T02:09:08.469Z,3.70
2023-03-03T02:11:37.099Z,3.68
2023-03-03T02:14:04.482Z,3.89
2023-03-03T02:16:32.032Z,3.71
2023-03-03T02:19:00.356Z,3.61
2023-03-03T02:21:28.006Z,3.83
2023-03-03T02:23:59.888Z,3.82
2023-03-03T02:26:29.476Z,3.69
2023-03-03T02:29:01.946Z,3.78
2023-03-03T02:31:33.493Z,3.84
2023-03-03T02:34:00.889Z,3.64
2023-03-03T02:36:32.627Z,3.38
2023-03-03T02:39:27.149Z,3.11
2023-03-03T02:42:15.186Z,3.11
2023-03-03T02:44:48.737Z,3.08
2023-03-03T02:47:16.489Z,3.51
2023-03-03T02:49:45.143Z,3.29
2023-03-03T02:52:14.828Z,3.18
2023-03-03T02:54:45.380Z,3.43
2023-03-03T02:57:12.790Z,3.10
2023-03-03T02:59:40.284Z,3.31
2023-03-03T03:02:12.499Z,3.39
2023-03-03T03:04:39.896Z,3.30
2023-03-03T03:07:07.835Z,3.44
2023-03-03T03:09:37.507Z,3.13
2023-03-03T03:12:05.424Z,3.12
2023-03-03T03:14:35.574Z,3.10
2023-03-03T03:17:03.119Z,3.03
2023-03-03T03:19:30.755Z,3.22
2023-03-03T03:22:01.638Z,3.22
2023-03-03T03:24:30.360Z,3.29
2023-03-03T03:27:02.919Z,3.22
2023-03-03T03:29:31.255Z,3.43
2023-03-03T03:31:58.780Z,3.37
2023-03-03T03:34:26.702Z,3.26
2023-03-03T03:36:55.243Z,3.23
2023-03-03T03:39:24.412Z,2.95
2023-03-03T03:41:53.437Z,2.76
2023-03-03T03:44:21.963Z,2.92
2023-03-03T03:46:49.228Z,2.69
2023-03-03T03:49:16.734Z,2.71
2023-03-03T03:51:44.275Z,2.71
2023-03-03T03:54:15.327Z,3.04
2023-03-03T03:56:43.676Z,2.94
2023-03-03T03:59:11.418Z,3.12
2023-03-03T04:01:39.424Z,2.98
2023-03-03T04:04:06.832Z,3.15
2023-03-03T04:06:35.029Z,3.15
2023-03-03T04:09:02.881Z,2.86
2023-03-03T04:11:31.616Z,2.97
2023-03-03T04:13:59.480Z,3.05
2023-03-03T04:16:27.751Z,3.34
2023-03-03T04:18:55.346Z,3.17
2023-03-03T04:21:22.978Z,3.27
2023-03-03T04:23:53.280Z,2.95
2023-03-03T04:26:20.763Z,2.81
2023-03-03T04:28:49.317Z,2.98
2023-03-03T04:31:17.093Z,3.03
2023-03-03T04:33:44.511Z,2.88
2023-03-03T04:36:12.189Z,2.78
2023-03-03T04:38:39.602Z,3.10
2023-03-03T04:41:07.040Z,2.82
2023-03-03T04:43:38.286Z,2.54
2023-03-03T04:46:06.298Z,2.46
2023-03-03T04:48:34.740Z,2.68
2023-03-03T04:51:02.121Z,2.48
2023-03-03T04:53:31.749Z,2.44
2023-03-03T04:55:59.164Z,2.61
2023-03-03T04:58:26.870Z,2.72
2023-03-03T05:00:57.140Z,2.54
2023-03-03T05:03:27.194Z,2.63
2023-03-03T05:05:54.646Z,2.71
2023-03-03T05:08:22.052Z,2.82
2023-03-03T05:10:53.792Z,2.86
2023-03-03T05:13:21.501Z,2.80
2023-03-03T05:15:55.481Z,2.75
2023-03-03T05:18:24.508Z,2.64
2023-03-03T05:20:52.555Z,2.67
2023-03-03T05:23:21.204Z,3.01
2023-03-03T05:25:50.057Z,3.03
2023-03-03T05:28:17.945Z,3.09
2023-03-03T05:30:45.838Z,2.97
2023-03-03T05:33:15.188Z,3.00
2023-03-03T05:35:43.208Z,2.79
2023-03-03T05:38:11.017Z,2.99
2023-03-03T05:40:38.940Z,2.93
2023-03-03T05:43:07.240Z,2.93
2023-03-03T05:45:35.484Z,2.98
2023-03-03T05:48:04.117Z,3.00
2023-03-03T05:50:32.224Z,3.16
2023-03-03T05:53:00.838Z,3.36
2023-03-03T05:55:28.335Z,3.03
2023-03-03T05:57:56.150Z,2.95
2023-03-03T06:00:23.454Z,3.00
2023-03-03T06:02:50.841Z,2.95
2023-03-03T06:05:18.559Z,2.97
2023-03-03T06:07:46.242Z,3.07
2023-03-03T06:10:13.582Z,3.24
2023-03-03T06:12:42.692Z,3.36
2023-03-03T06:15:10.792Z,3.16
2023-03-03T06:17:38.565Z,2.86
2023-03-03T06:20:06.862Z,2.96
2023-03-03T06:22:34.263Z,2.92
2023-03-03T06:25:01.579Z,2.81
2023-03-03T06:27:29.079Z,2.99
2023-03-03T06:29:56.412Z,2.92
2023-03-03T06:32:23.716Z,3.00
2023-03-03T06:34:51.090Z,2.85
2023-03-03T06:37:18.399Z,2.98
2023-03-03T06:39:45.917Z,2.89
2023-03-03T06:42:13.420Z,2.91
2023-03-03T06:44:40.696Z,2.88
2023-03-03T06:47:08.123Z,2.93
2023-03-03T06:49:35.674Z,3.19
2023-03-03T06:52:11.962Z,2.89
2023-03-03T06:54:39.464Z,2.85
2023-03-03T06:57:17.794Z,3.05
2023-03-03T06:59:45.468Z,3.15
2023-03-03T07:02:17.170Z,2.93
2023-03-03T07:04:47.024Z,2.91
2023-03-03T07:07:23.179Z,3.06
2023-03-03T07:09:53.638Z,3.06
2023-03-03T07:12:23.807Z,2.98
2023-03-03T07:14:56.405Z,2.90
2023-03-03T07:17:25.448Z,2.89
2023-03-03T07:19:52.797Z,2.87
2023-03-03T07:22:22.107Z,2.93
2023-03-03T07:24:53.165Z,2.89
2023-03-03T07:27:27.083Z,2.89
2023-03-03T07:29:56.423Z,4.71
2023-03-03T07:32:38.408Z,3.56
2023-03-03T07:35:39.009Z,2.92
2023-03-03T07:38:26.533Z,3.09
2023-03-03T07:40:56.131Z,2.81
2023-03-03T07:43:37.570Z,2.59
2023-03-03T07:46:11.522Z,2.54
2023-03-03T07:48:41.949Z,2.63
2023-03-03T07:51:41.888Z,2.70
2023-03-03T07:54:28.688Z,2.86
2023-03-03T07:57:31.589Z,2.68
2023-03-03T08:00:28.669Z,2.61
2023-03-03T08:03:12.913Z,3.02
2023-03-03T08:05:45.270Z,2.53
2023-03-03T08:08:16.284Z,2.50
2023-03-03T08:10:54.389Z,2.40
2023-03-03T08:13:29.170Z,2.66
2023-03-03T08:16:16.904Z,2.51
2023-03-03T08:18:47.691Z,2.64
2023-03-03T08:21:15.821Z,2.55
2023-03-03T08:23:43.413Z,2.31
2023-03-03T08:26:12.701Z,2.32
2023-03-03T08:28:40.034Z,2.40
2023-03-03T08:31:20.053Z,2.52
2023-03-03T08:33:53.317Z,2.66
2023-03-03T08:36:20.811Z,2.87
2023-03-03T08:38:48.315Z,2.69
2023-03-03T08:41:15.747Z,2.73
2023-03-03T08:43:45.421Z,2.46
2023-03-03T08:46:12.870Z,2.49
2023-03-03T08:48:40.169Z,2.75
2023-03-03T08:51:07.842Z,2.47
2023-03-03T08:53:36.660Z,2.56
2023-03-03T08:56:05.253Z,2.70
2023-03-03T08:58:35.479Z,2.66
2023-03-03T09:01:04.354Z,2.82
2023-03-03T09:03:31.774Z,3.08
2023-03-03T09:05:59.321Z,2.70
2023-03-03T09:08:26.584Z,2.85
2023-03-03T09:10:53.978Z,3.02
2023-03-03T09:13:21.683Z,3.52
2023-03-03T09:15:49.349Z,3.23
2023-03-03T09:18:36.094Z,3.32
2023-03-03T09:21:18.178Z,3.50
2023-03-03T09:24:05.716Z,3.71
2023-03-03T09:26:48.841Z,3.71
2023-03-03T09:29:17.820Z,3.77
2023-03-03T09:31:59.317Z,3.69
2023-03-03T09:34:36.046Z,3.87
2023-03-03T09:37:40.584Z,3.97
2023-03-03T09:40:37.158Z,3.69
2023-03-03T09:43:24.431Z,3.80
2023-03-03T09:46:15.893Z,3.44
2023-03-03T09:49:01.235Z,3.36
2023-03-03T09:51:42.926Z,3.69
2023-03-03T09:54:24.219Z,3.96
2023-03-03T09:57:17.802Z,4.20
2023-03-03T09:59:57.803Z,4.30
2023-03-03T10:02:43.721Z,3.95
2023-03-03T10:05:17.455Z,4.33
2023-03-03T10:08:19.020Z,4.38
2023-03-03T10:10:55.652Z,4.42
2023-03-03T10:13:35.448Z,4.25
2023-03-03T10:16:23.273Z,4.09
2023-03-03T10:19:29.098Z,4.27
2023-03-03T10:22:43.180Z,4.35
2023-03-03T10:25:22.057Z,4.54
2023-03-03T10:27:52.660Z,4.53
2023-03-03T10:30:42.617Z,4.49
2023-03-03T10:33:36.435Z,4.66
2023-03-03T10:36:30.656Z,4.65
2023-03-03T10:39:10.727Z,4.47
2023-03-03T10:42:11.526Z,4.65
2023-03-03T10:44:54.068Z,4.77
2023-03-03T10:47:34.069Z,4.67
2023-03-03T10:50:11.032Z,4.65
2023-03-03T10:52:47.659Z,4.90
2023-03-03T10:55:57.746Z,5.00
2023-03-03T10:58:39.752Z,5.06
2023-03-03T11:01:27.348Z,4.76
2023-03-03T11:04:12.926Z,5.07
2023-03-03T11:06:47.726Z,5.13
2023-03-03T11:09:17.797Z,5.21
2023-03-03T11:11:55.803Z,5.34
2023-03-03T11:14:47.496Z,5.56
2023-03-03T11:17:36.164Z,5.69
2023-03-03T11:20:13.287Z,5.69
2023-03-03T11:22:56.865Z,5.56
2023-03-03T11:25:35.477Z,5.36
2023-03-03T11:28:11.148Z,5.40
2023-03-03T11:30:59.988Z,5.46
2023-03-03T11:33:54.175Z,5.78
2023-03-03T11:36:34.852Z,5.74
2023-03-03T11:39:10.003Z,6.24
2023-03-03T11:42:08.554Z,6.06
2023-03-03T11:44:39.583Z,6.19
2023-03-03T11:47:31.583Z,6.39
2023-03-03T11:50:17.816Z,6.23
2023-03-03T11:53:25.037Z,6.39
2023-03-03T11:56:17.358Z,6.31
2023-03-03T11:58:54.969Z,6.29
2023-03-03T12:01:43.296Z,6.55
2023-03-03T12:04:22.388Z,6.70
2023-03-03T12:06:58.653Z,6.87
2023-03-03T12:09:32.175Z,6.92
2023-03-03T12:12:11.040Z,7.11
2023-03-03T12:15:08.816Z,6.98
2023-03-03T12:17:39.315Z,6.70
2023-03-03T12:20:13.988Z,6.79
2023-03-03T12:23:04.470Z,7.06
2023-03-03T12:25:41.739Z,7.05
2023-03-03T12:28:41.218Z,7.19
2023-03-03T12:31:49.128Z,7.03
2023-03-03T12:34:54.821Z,7.19
2023-03-03T12:37:42.544Z,7.19
2023-03-03T12:40:21.106Z,7.45
2023-03-03T12:43:23.457Z,7.48
2023-03-03T12:46:00.596Z,7.39
2023-03-03T12:48:47.098Z,7.49
2023-03-03T12:51:45.714Z,7.48
2023-03-03T12:54:25.853Z,7.52
2023-03-03T12:56:55.766Z,7.83
2023-03-03T12:59:36.600Z,8.25
2023-03-03T13:02:25.441Z,7.92
2023-03-03T13:05:05.334Z,7.94
2023-03-03T13:08:08.566Z,8.26
2023-03-03T13:11:00.596Z,8.08
2023-03-03T13:13:44.499Z,8.17
2023-03-03T13:16:17.143Z,8.15
2023-03-03T13:19:08.392Z,8.23
2023-03-03T13:21:48.936Z,8.39
2023-03-03T13:24:28.598Z,8.47
2023-03-03T13:27:06.233Z,8.79
2023-03-03T13:29:37.961Z,8.36
2023-03-03T13:32:05.487Z,8.19
2023-03-03T13:34:50.763Z,8.12
2023-03-03T13:37:22.008Z,8.18
2023-03-03T13:40:12.547Z,8.38
2023-03-03T13:43:05.378Z,8.44
2023-03-03T13:45:39.164Z,8.55
2023-03-03T13:48:31.625Z,8.69
2023-03-03T13:51:27.172Z,8.77
2023-03-03T13:54:15.781Z,9.63
2023-03-03T13:57:11.962Z,9.01
2023-03-03T13:59:58.632Z,8.96
2023-03-03T14:02:53.903Z,8.76
2023-03-03T14:05:46.506Z,8.82
2023-03-03T14:08:51.836Z,8.94
2023-03-03T14:11:56.472Z,8.98
2023-03-03T14:15:07.020Z,8.77
2023-03-03T14:17:41.083Z,8.86
2023-03-03T14:20:25.189Z,8.86
2023-03-03T14:22:55.548Z,8.77
2023-03-03T14:25:23.595Z,9.19
2023-03-03T14:28:02.607Z,9.46
2023-03-03T14:30:39.861Z,9.10
2023-03-03T14:33:31.653Z,9.14
2023-03-03T14:35:59.487Z,9.08
2023-03-03T14:38:32.671Z,9.22
2023-03-03T14:41:12.099Z,9.06
2023-03-03T14:43:40.477Z,9.20
2023-03-03T14:46:26.770Z,9.21
2023-03-03T14:48:56.373Z,9.20
2023-03-03T14:51:24.625Z,9.24
2023-03-03T14:53:52.418Z,9.08
2023-03-03T14:56:36.215Z,8.93
2023-03-03T14:59:12.410Z,9.12
2023-03-03T15:01:39.979Z,9.13
2023-03-03T15:04:16.618Z,9.13
2023-03-03T15:06:45.106Z,8.80
2023-03-03T15:09:50.474Z,9.08
2023-03-03T15:12:26.661Z,8.99
2023-03-03T15:15:02.966Z,9.06
2023-03-03T15:17:41.566Z,8.97
2023-03-03T15:20:10.525Z,8.80
2023-03-03T15:22:48.709Z,8.81
2023-03-03T15:25:41.987Z,8.52
2023-03-03T15:28:44.795Z,8.63
2023-03-03T15:31:41.183Z,8.86
2023-03-03T15:34:24.000Z,8.97
2023-03-03T15:36:57.368Z,8.71
2023-03-03T15:40:04.125Z,8.64
2023-03-03T15:42:39.374Z,8.68
2023-03-03T15:45:17.015Z,8.67
2023-03-03T15:47:56.561Z,8.56
2023-03-03T15:50:53.360Z,8.73
2023-03-03T15:53:46.059Z,8.57
2023-03-03T15:56:30.950Z,8.77
2023-03-03T15:59:02.428Z,8.50
2023-03-03T16:01:36.236Z,8.55
2023-03-03T16:04:13.728Z,8.53
2023-03-03T16:07:06.138Z,8.66
2023-03-03T16:09:57.976Z,8.33
2023-03-03T16:12:35.024Z,8.42
2023-03-03T16:15:25.102Z,8.39
2023-03-03T16:18:10.889Z,8.33
2023-03-03T16:20:57.222Z,8.23
2023-03-03T16:23:27.829Z,8.35
2023-03-03T16:26:05.286Z,8.21
2023-03-03T16:29:00.919Z,8.12
2023-03-03T16:31:38.233Z,8.02
2023-03-03T16:34:15.054Z,7.92
2023-03-03T16:36:54.886Z,7.79
2023-03-03T16:39:40.736Z,7.94
2023-03-03T16:42:18.322Z,7.79
2023-03-03T16:44:58.867Z,7.70
2023-03-03T16:47:38.252Z,7.90
2023-03-03T16:50:50.530Z,7.66
2023-03-03T16:53:33.359Z,7.61
2023-03-03T16:56:23.593Z,7.54
2023-03-03T16:58:53.936Z,7.63
2023-03-03T17:01:30.122Z,7.20
2023-03-03T17:04:28.763Z,7.12
2023-03-03T17:07:03.569Z,7.07
2023-03-03T17:09:34.175Z,6.96
2023-03-03T17:12:23.335Z,6.68
2023-03-03T17:15:06.422Z,6.59
2023-03-03T17:17:36.891Z,6.64
2023-03-03T17:20:15.711Z,6.66
2023-03-03T17:23:09.621Z,6.58
2023-03-03T17:26:13.577Z,6.63
2023-03-03T17:28:46.912Z,6.79
2023-03-03T17:31:26.783Z,6.47
2023-03-03T17:34:16.200Z,6.40
2023-03-03T17:36:57.680Z,6.46
2023-03-03T17:39:46.506Z,6.12
2023-03-03T17:42:22.276Z,5.99
2023-03-03T17:45:03.063Z,6.05
2023-03-03T17:47:58.195Z,6.23
2023-03-03T17:50:53.833Z,6.33
2023-03-03T17:53:37.996Z,6.05
2023-03-03T17:56:59.692Z,5.87
2023-03-03T17:59:42.536Z,5.90
2023-03-03T18:02:37.565Z,5.71
2023-03-03T18:05:25.448Z,5.73
2023-03-03T18:08:24.986Z,5.70
2023-03-03T18:10:58.272Z,5.59
2023-03-03T18:13:44.298Z,5.70
2023-03-03T18:16:41.923Z,5.72
2023-03-03T18:19:18.418Z,5.64
2023-03-03T18:21:48.746Z,5.48
2023-03-03T18:24:16.170Z,5.49
2023-03-03T18:26:43.913Z,5.63
2023-03-03T18:29:20.546Z,5.74
2023-03-03T18:31:48.031Z,5.74
2023-03-03T18:34:21.501Z,5.91
2023-03-03T18:37:11.059Z,5.66
2023-03-03T18:40:10.597Z,5.54
2023-03-03T18:42:40.874Z,5.53
2023-03-03T18:45:20.477Z,5.59
2023-03-03T18:47:59.798Z,5.47
2023-03-03T18:50:34.965Z,5.40
2023-03-03T18:53:18.022Z,5.47
2023-03-03T18:55:47.319Z,5.49
2023-03-03T18:58:14.499Z,5.51
2023-03-03T19:01:00.142Z,5.65
2023-03-03T19:03:36.406Z,5.63
2023-03-03T19:06:08.558Z,5.35
2023-03-03T19:08:45.101Z,5.49
2023-03-03T19:11:40.749Z,5.17
2023-03-03T19:14:17.425Z,5.43
2023-03-03T19:16:45.545Z,5.49
2023-03-03T19:19:23.751Z,5.37
2023-03-03T19:22:01.570Z,5.52
2023-03-03T19:24:33.804Z,5.69
2023-03-03T19:27:31.218Z,5.65
2023-03-03T19:30:04.891Z,5.54
2023-03-03T19:33:10.532Z,5.55
2023-03-03T19:35:52.188Z,5.20
2023-03-03T19:38:46.059Z,5.34
2023-03-03T19:41:29.184Z,5.16
2023-03-03T19:44:00.162Z,4.97
2023-03-03T19:46:36.504Z,4.98
2023-03-03T19:49:35.641Z,5.02
2023-03-03T19:52:08.818Z,4.87
2023-03-03T19:54:57.343Z,5.02
2023-03-03T19:57:35.090Z,5.23
2023-03-03T20:00:34.578Z,5.04
2023-03-03T20:03:29.448Z,5.06
2023-03-03T20:06:20.825Z,5.11
2023-03-03T20:09:23.479Z,5.00
2023-03-03T20:11:53.722Z,4.84
2023-03-03T20:14:33.618Z,5.00
2023-03-03T20:17:30.711Z,4.65
2023-03-03T20:20:15.615Z,4.85
2023-03-03T20:23:07.206Z,4.92
2023-03-03T20:25:44.991Z,4.83
2023-03-03T20:28:38.259Z,4.66
2023-03-03T20:31:06.967Z,4.81
2023-03-03T20:33:52.734Z,5.07
2023-03-03T20:36:28.737Z,5.00
2023-03-03T20:39:02.089Z,4.80
2023-03-03T20:41:58.769Z,4.78
2023-03-03T20:44:41.454Z,4.58
2023-03-03T20:47:30.857Z,4.73
2023-03-03T20:50:15.368Z,5.00
2023-03-03T20:52:49.233Z,4.83
2023-03-03T20:55:24.739Z,4.63
2023-03-03T20:57:58.048Z,4.58
2023-03-03T21:00:46.311Z,4.63
2023-03-03T21:03:19.861Z,4.38
2023-03-03T21:06:09.550Z,4.53
2023-03-03T21:08:40.851Z,4.85
2023-03-03T21:11:08.601Z,4.62
2023-03-03T21:13:41.319Z,4.67
2023-03-03T21:16:39.059Z,4.73
2023-03-03T21:19:10.653Z,4.65
2023-03-03T21:21:43.109Z,4.54
2023-03-03T21:24:19.818Z,4.50
2023-03-03T21:26:55.625Z,4.93
2023-03-03T21:29:34.555Z,4.86
2023-03-03T21:32:09.742Z,4.61
2023-03-03T21:34:39.353Z,4.28
2023-03-03T21:37:12.651Z,4.35
2023-03-03T21:39:41.928Z,4.46
2023-03-03T21:42:13.343Z,4.72
2023-03-03T21:44:46.681Z,4.68
2023-03-03T21:47:19.119Z,4.62
2023-03-03T21:49:49.221Z,4.58
2023-03-03T21:52:18.643Z,4.69
2023-03-03T21:54:47.308Z,4.44
2023-03-03T21:57:15.486Z,4.23
2023-03-03T21:59:43.108Z,4.35
2023-03-03T22:02:10.666Z,4.56
2023-03-03T22:04:41.118Z,4.31
2023-03-03T22:07:09.005Z,4.26
2023-03-03T22:09:37.192Z,4.29
2023-03-03T22:12:05.935Z,4.33
2023-03-03T22:14:33.438Z,4.28
2023-03-03T22:17:00.928Z,4.34
2023-03-03T22:19:28.282Z,4.53
2023-03-03T22:21:55.752Z,4.27
2023-03-03T22:24:23.049Z,4.35
2023-03-03T22:26:50.319Z,4.29
2023-03-03T22:29:22.853Z,4.21
2023-03-03T22:31:51.168Z,4.13
2023-03-03T22:34:18.770Z,4.38
2023-03-03T22:36:46.591Z,4.38
2023-03-03T22:39:14.070Z,4.48
2023-03-03T22:41:41.423Z,4.51
2023-03-03T22:44:08.708Z,4.55
2023-03-03T22:46:36.061Z,4.48
2023-03-03T22:49:03.461Z,4.27
2023-03-03T22:51:30.897Z,4.40
2023-03-03T22:53:58.263Z,4.39
2023-03-03T22:56:25.834Z,4.26
2023-03-03T22:58:53.605Z,4.39
2023-03-03T23:01:21.169Z,4.35
2023-03-03T23:03:50.198Z,4.26
2023-03-03T23:06:17.608Z,4.54
2023-03-03T23:08:44.961Z,4.41
2023-03-03T23:11:12.518Z,4.47
2023-03-03T23:13:39.881Z,4.57
2023-03-03T23:16:07.505Z,4.59
2023-03-03T23:18:34.957Z,4.63
2023-03-03T23:21:02.486Z,4.64
2023-03-03T23:23:30.687Z,4.28
2023-03-03T23:25:58.051Z,4.06
2023-03-03T23:28:25.343Z,4.12
2023-03-03T23:30:52.745Z,4.23
2023-03-03T23:33:20.466Z,4.02
2023-03-03T23:35:49.830Z,4.02
2023-03-03T23:38:17.837Z,4.11
2023-03-03T23:40:46.855Z,4.07
2023-03-03T23:43:14.969Z,3.99
2023-03-03T23:45:42.248Z,4.01
2023-03-03T23:48:10.216Z,4.29
2023-03-03T23:50:38.180Z,3.92
2023-03-03T23:53:06.641Z,3.95
2023-03-03T23:55:34.851Z,4.11
2023-03-03T23:58:02.173Z,4.07
